WXM80 ListenWXM80 Stop

You find our weather info also at:

UK Metoffice

WeatherCloud

Weather Underground

Northeastern Weather Network

AWEKAS

Citizen Weather Observer Program (CWOP)

HAMweather, WeatherForYou, PWS Weather


Weather Underground History page Text

Daily Summary for July 27, 2017 Units:  Both    English   Metric
« Previous Day
Next Day »
Daily Weekly Monthly Yearly Custom
  High: Low: Average:
Temperature: 79.1 °F /  26.2 °C 59.8 °F /  15.4 °C 70.2 °F /  21.2 °C
Dew Point: 70.2 °F /  21.2 °C 56.8 °F /  13.8 °C 65.4 °F /  18.6 °C
Humidity: 96 % 69 % 85 %
Wind Speed: 3.6 mph /  5.8 km/h - 0.6 mph /  1 km/h
Wind Gust: 7.0 mph /  11.3 km/h - -
Wind:- - South
Pressure: 30.08 in /  1018.5 hPa 29.82 in /  1009.7 hPa -
Precipitation: 0.00 in /  0 mm    
Historical Graphs
 
 
Tabular Data for July 27, 2017
Time Temperature Dew Point Pressure Wind Wind Speed Wind Gust Humidity Rainfall Rate (Hourly)
00:46 63.3 °F /  17.4 °C 58.7 °F /  14.8 °C 30.08 in /  1018.5 hPa Calm   1.2 mph /  1.9 km/h 85 % 0.00 in /  0 mm
00:51 63.3 °F /  17.4 °C 59.0 °F /  15 °C 30.08 in /  1018.5 hPa WSW 0.1 mph /  0.2 km/h 1.2 mph /  1.9 km/h 86 % 0.00 in /  0 mm
00:56 63.2 °F /  17.3 °C 58.9 °F /  14.9 °C 30.08 in /  1018.5 hPa Calm     86 % 0.00 in /  0 mm
01:01 63.2 °F /  17.3 °C 58.9 °F /  14.9 °C 30.08 in /  1018.5 hPa Calm     86 % 0.00 in /  0 mm
01:06 63.2 °F /  17.3 °C 58.9 °F /  14.9 °C 30.08 in /  1018.5 hPa Calm     86 % 0.00 in /  0 mm
01:11 63.1 °F /  17.3 °C 58.8 °F /  14.9 °C 30.07 in /  1018.2 hPa Calm     86 % 0.00 in /  0 mm
01:16 63.1 °F /  17.3 °C 58.8 °F /  14.9 °C 30.07 in /  1018.2 hPa Calm     86 % 0.00 in /  0 mm
01:21 63.0 °F /  17.2 °C 58.7 °F /  14.8 °C 30.07 in /  1018.2 hPa Calm     86 % 0.00 in /  0 mm
01:26 62.9 °F /  17.2 °C 58.6 °F /  14.8 °C 30.07 in /  1018.2 hPa Calm     86 % 0.00 in /  0 mm
01:28 62.9 °F /  17.2 °C 58.6 °F /  14.8 °C 30.07 in /  1018.2 hPa Calm     86 % 0.00 in /  0 mm
01:33 62.8 °F /  17.1 °C 58.5 °F /  14.7 °C 30.06 in /  1017.8 hPa Calm     86 % 0.00 in /  0 mm
01:38 62.7 °F /  17.1 °C 58.5 °F /  14.7 °C 30.07 in /  1018.2 hPa Calm     86 % 0.00 in /  0 mm
01:43 62.5 °F /  16.9 °C 58.3 °F /  14.6 °C 30.07 in /  1018.2 hPa Calm     86 % 0.00 in /  0 mm
01:48 62.4 °F /  16.9 °C 58.5 °F /  14.7 °C 30.07 in /  1018.2 hPa Calm   1.0 mph /  1.6 km/h 87 % 0.00 in /  0 mm
01:53 62.3 °F /  16.8 °C 58.4 °F /  14.7 °C 30.07 in /  1018.2 hPa Calm     87 % 0.00 in /  0 mm
01:58 62.1 °F /  16.7 °C 58.2 °F /  14.6 °C 30.07 in /  1018.2 hPa Calm     87 % 0.00 in /  0 mm
02:03 62.0 °F /  16.7 °C 58.1 °F /  14.5 °C 30.06 in /  1017.8 hPa Calm     87 % 0.00 in /  0 mm
02:08 61.9 °F /  16.6 °C 58.3 °F /  14.6 °C 30.06 in /  1017.8 hPa Calm     88 % 0.00 in /  0 mm
02:13 61.8 °F /  16.6 °C 58.2 °F /  14.6 °C 30.06 in /  1017.8 hPa Calm     88 % 0.00 in /  0 mm
02:18 61.7 °F /  16.5 °C 58.1 °F /  14.5 °C 30.06 in /  1017.8 hPa Calm     88 % 0.00 in /  0 mm
02:23 61.5 °F /  16.4 °C 57.9 °F /  14.4 °C 30.05 in /  1017.5 hPa Calm     88 % 0.00 in /  0 mm
02:28 61.4 °F /  16.3 °C 58.1 °F /  14.5 °C 30.05 in /  1017.5 hPa Calm     89 % 0.00 in /  0 mm
02:34 61.3 °F /  16.3 °C 58.0 °F /  14.4 °C 30.05 in /  1017.5 hPa Calm     89 % 0.00 in /  0 mm
02:39 61.2 °F /  16.2 °C 57.9 °F /  14.4 °C 30.05 in /  1017.5 hPa Calm     89 % 0.00 in /  0 mm
02:43 61.1 °F /  16.2 °C 57.8 °F /  14.3 °C 30.04 in /  1017.2 hPa Calm     89 % 0.00 in /  0 mm
02:49 60.9 °F /  16.1 °C 57.6 °F /  14.2 °C 30.04 in /  1017.2 hPa Calm     89 % 0.00 in /  0 mm
02:54 60.8 °F /  16 °C 57.5 °F /  14.2 °C 30.04 in /  1017.2 hPa Calm     89 % 0.00 in /  0 mm
02:59 60.7 °F /  15.9 °C 57.4 °F /  14.1 °C 30.03 in /  1016.8 hPa Calm     89 % 0.00 in /  0 mm
03:04 60.7 °F /  15.9 °C 57.4 °F /  14.1 °C 30.03 in /  1016.8 hPa Calm     89 % 0.00 in /  0 mm
03:09 60.5 °F /  15.8 °C 57.2 °F /  14 °C 30.03 in /  1016.8 hPa Calm     89 % 0.00 in /  0 mm
03:14 60.5 °F /  15.8 °C 57.2 °F /  14 °C 30.03 in /  1016.8 hPa Calm     89 % 0.00 in /  0 mm
03:19 60.4 °F /  15.8 °C 57.1 °F /  13.9 °C 30.03 in /  1016.8 hPa Calm     89 % 0.00 in /  0 mm
03:24 60.3 °F /  15.7 °C 57.0 °F /  13.9 °C 30.02 in /  1016.5 hPa Calm     89 % 0.00 in /  0 mm
03:29 60.2 °F /  15.7 °C 56.9 °F /  13.8 °C 30.03 in /  1016.8 hPa Calm     89 % 0.00 in /  0 mm
03:34 60.1 °F /  15.6 °C 56.8 °F /  13.8 °C 30.03 in /  1016.8 hPa Calm     89 % 0.00 in /  0 mm
03:39 60.0 °F /  15.6 °C 57.1 °F /  13.9 °C 30.02 in /  1016.5 hPa Calm     90 % 0.00 in /  0 mm
03:44 60.0 °F /  15.6 °C 57.1 °F /  13.9 °C 30.02 in /  1016.5 hPa Calm     90 % 0.00 in /  0 mm
03:49 59.9 °F /  15.5 °C 57.0 °F /  13.9 °C 30.03 in /  1016.8 hPa Calm     90 % 0.00 in /  0 mm
03:54 59.9 °F /  15.5 °C 57.0 °F /  13.9 °C 30.03 in /  1016.8 hPa Calm     90 % 0.00 in /  0 mm
03:59 59.9 °F /  15.5 °C 57.3 °F /  14.1 °C 30.03 in /  1016.8 hPa Calm     91 % 0.00 in /  0 mm
04:04 59.9 °F /  15.5 °C 57.3 °F /  14.1 °C 30.02 in /  1016.5 hPa Calm     91 % 0.00 in /  0 mm
04:09 59.9 °F /  15.5 °C 57.3 °F /  14.1 °C 30.02 in /  1016.5 hPa Calm     91 % 0.00 in /  0 mm
04:14 59.8 °F /  15.4 °C 57.2 °F /  14 °C 30.02 in /  1016.5 hPa Calm     91 % 0.00 in /  0 mm
04:19 59.8 °F /  15.4 °C 57.2 °F /  14 °C 30.03 in /  1016.8 hPa Calm     91 % 0.00 in /  0 mm
04:24 59.8 °F /  15.4 °C 57.2 °F /  14 °C 30.02 in /  1016.5 hPa Calm     91 % 0.00 in /  0 mm
04:29 59.8 °F /  15.4 °C 57.2 °F /  14 °C 30.02 in /  1016.5 hPa Calm     91 % 0.00 in /  0 mm
04:34 59.8 °F /  15.4 °C 57.5 °F /  14.2 °C 30.02 in /  1016.5 hPa Calm     92 % 0.00 in /  0 mm
04:39 59.8 °F /  15.4 °C 57.5 °F /  14.2 °C 30.01 in /  1016.1 hPa Calm     92 % 0.00 in /  0 mm
04:44 59.8 °F /  15.4 °C 57.8 °F /  14.3 °C 30.01 in /  1016.1 hPa Calm     93 % 0.00 in /  0 mm
04:49 60.0 °F /  15.6 °C 58.0 °F /  14.4 °C 30.01 in /  1016.1 hPa Calm     93 % 0.00 in /  0 mm
04:55 60.0 °F /  15.6 °C 58.0 °F /  14.4 °C 30.01 in /  1016.1 hPa WSW 0.2 mph /  0.3 km/h   93 % 0.00 in /  0 mm
05:00 60.1 °F /  15.6 °C 58.4 °F /  14.7 °C 30.01 in /  1016.1 hPa Calm   1.2 mph /  1.9 km/h 94 % 0.00 in /  0 mm
05:05 60.2 °F /  15.7 °C 58.5 °F /  14.7 °C 30.01 in /  1016.1 hPa Calm     94 % 0.00 in /  0 mm
05:10 60.3 °F /  15.7 °C 58.6 °F /  14.8 °C 30.00 in /  1015.8 hPa WSW 0.1 mph /  0.2 km/h 2.3 mph /  3.7 km/h 94 % 0.00 in /  0 mm
05:15 60.4 °F /  15.8 °C 58.7 °F /  14.8 °C 30.01 in /  1016.1 hPa Calm     94 % 0.00 in /  0 mm
05:18 60.4 °F /  15.8 °C 58.7 °F /  14.8 °C 30.01 in /  1016.1 hPa Calm     94 % 0.00 in /  0 mm
05:23 60.4 °F /  15.8 °C 58.7 °F /  14.8 °C 30.01 in /  1016.1 hPa Calm     94 % 0.00 in /  0 mm
05:28 60.5 °F /  15.8 °C 58.8 °F /  14.9 °C 30.01 in /  1016.1 hPa Calm     94 % 0.00 in /  0 mm
05:33 60.5 °F /  15.8 °C 58.8 °F /  14.9 °C 30.01 in /  1016.1 hPa Calm     94 % 0.00 in /  0 mm
05:38 60.5 °F /  15.8 °C 58.8 °F /  14.9 °C 30.01 in /  1016.1 hPa Calm     94 % 0.00 in /  0 mm
05:43 60.5 °F /  15.8 °C 58.8 °F /  14.9 °C 30.02 in /  1016.5 hPa Calm     94 % 0.00 in /  0 mm
05:48 60.5 °F /  15.8 °C 58.8 °F /  14.9 °C 30.02 in /  1016.5 hPa Calm   1.2 mph /  1.9 km/h 94 % 0.00 in /  0 mm
05:53 60.5 °F /  15.8 °C 58.8 °F /  14.9 °C 30.02 in /  1016.5 hPa Calm   1.2 mph /  1.9 km/h 94 % 0.00 in /  0 mm
05:58 60.5 °F /  15.8 °C 58.8 °F /  14.9 °C 30.02 in /  1016.5 hPa Calm     94 % 0.00 in /  0 mm
06:03 60.5 °F /  15.8 °C 58.8 °F /  14.9 °C 30.02 in /  1016.5 hPa South 0.6 mph /  1 km/h 1.0 mph /  1.6 km/h 94 % 0.00 in /  0 mm
06:08 60.5 °F /  15.8 °C 58.8 °F /  14.9 °C 30.02 in /  1016.5 hPa Calm     94 % 0.00 in /  0 mm
06:09 60.6 °F /  15.9 °C 58.9 °F /  14.9 °C 30.02 in /  1016.5 hPa South 0.1 mph /  0.2 km/h 2.0 mph /  3.2 km/h 94 % 0.00 in /  0 mm
06:14 60.7 °F /  15.9 °C 59.3 °F /  15.2 °C 30.02 in /  1016.5 hPa South 0.1 mph /  0.2 km/h 1.2 mph /  1.9 km/h 95 % 0.00 in /  0 mm
06:19 60.7 °F /  15.9 °C 59.3 °F /  15.2 °C 30.02 in /  1016.5 hPa WSW 0.3 mph /  0.5 km/h   95 % 0.00 in /  0 mm
06:24 60.8 °F /  16 °C 59.4 °F /  15.2 °C 30.01 in /  1016.1 hPa WSW 0.1 mph /  0.2 km/h 1.2 mph /  1.9 km/h 95 % 0.00 in /  0 mm
06:29 60.9 °F /  16.1 °C 59.5 °F /  15.3 °C 30.01 in /  1016.1 hPa Calm   1.2 mph /  1.9 km/h 95 % 0.00 in /  0 mm
06:34 61.1 °F /  16.2 °C 59.7 °F /  15.4 °C 30.01 in /  1016.1 hPa Calm   1.2 mph /  1.9 km/h 95 % 0.00 in /  0 mm
06:39 61.2 °F /  16.2 °C 59.8 °F /  15.4 °C 30.02 in /  1016.5 hPa Calm     95 % 0.00 in /  0 mm
06:44 61.4 °F /  16.3 °C 60.2 °F /  15.7 °C 30.01 in /  1016.1 hPa NW 0.1 mph /  0.2 km/h 2.3 mph /  3.7 km/h 96 % 0.00 in /  0 mm
06:49 61.6 °F /  16.4 °C 60.4 °F /  15.8 °C 30.01 in /  1016.1 hPa WSW 0.1 mph /  0.2 km/h 3.0 mph /  4.8 km/h 96 % 0.00 in /  0 mm
06:54 61.9 °F /  16.6 °C 60.7 °F /  15.9 °C 30.01 in /  1016.1 hPa Calm   1.2 mph /  1.9 km/h 96 % 0.00 in /  0 mm
06:59 62.1 °F /  16.7 °C 60.9 °F /  16.1 °C 30.01 in /  1016.1 hPa SW 0.2 mph /  0.3 km/h 2.3 mph /  3.7 km/h 96 % 0.00 in /  0 mm
07:04 62.3 °F /  16.8 °C 61.1 °F /  16.2 °C 30.01 in /  1016.1 hPa SW 0.7 mph /  1.1 km/h 3.0 mph /  4.8 km/h 96 % 0.00 in /  0 mm
07:10 62.5 °F /  16.9 °C 61.3 °F /  16.3 °C 30.01 in /  1016.1 hPa Calm     96 % 0.00 in /  0 mm
07:15 62.6 °F /  17 °C 61.4 °F /  16.3 °C 30.01 in /  1016.1 hPa SW 0.4 mph /  0.6 km/h 2.3 mph /  3.7 km/h 96 % 0.00 in /  0 mm
07:20 62.8 °F /  17.1 °C 61.6 °F /  16.4 °C 30.01 in /  1016.1 hPa WSW 0.4 mph /  0.6 km/h 3.5 mph /  5.6 km/h 96 % 0.00 in /  0 mm
07:25 63.0 °F /  17.2 °C 61.8 °F /  16.6 °C 30.01 in /  1016.1 hPa WSW 0.4 mph /  0.6 km/h 2.0 mph /  3.2 km/h 96 % 0.00 in /  0 mm
07:30 63.1 °F /  17.3 °C 61.9 °F /  16.6 °C 30.01 in /  1016.1 hPa SSE 1.0 mph /  1.6 km/h 3.0 mph /  4.8 km/h 96 % 0.00 in /  0 mm
07:35 63.3 °F /  17.4 °C 62.1 °F /  16.7 °C 30.02 in /  1016.5 hPa South 0.1 mph /  0.2 km/h 1.2 mph /  1.9 km/h 96 % 0.00 in /  0 mm
07:40 63.5 °F /  17.5 °C 62.3 °F /  16.8 °C 30.01 in /  1016.1 hPa WSW 0.7 mph /  1.1 km/h 3.5 mph /  5.6 km/h 96 % 0.00 in /  0 mm
07:45 63.7 °F /  17.6 °C 62.5 °F /  16.9 °C 30.02 in /  1016.5 hPa WSW 1.0 mph /  1.6 km/h 3.0 mph /  4.8 km/h 96 % 0.00 in /  0 mm
07:50 63.9 °F /  17.7 °C 62.7 °F /  17.1 °C 30.02 in /  1016.5 hPa WSW 2.0 mph /  3.2 km/h 4.0 mph /  6.4 km/h 96 % 0.00 in /  0 mm
07:55 64.3 °F /  17.9 °C 63.1 °F /  17.3 °C 30.01 in /  1016.1 hPa SSW 1.5 mph /  2.4 km/h 6.0 mph /  9.7 km/h 96 % 0.00 in /  0 mm
08:00 64.5 °F /  18.1 °C 63.3 °F /  17.4 °C 30.02 in /  1016.5 hPa WSW 3.6 mph /  5.8 km/h 6.0 mph /  9.7 km/h 96 % 0.00 in /  0 mm
08:05 64.9 °F /  18.3 °C 63.4 °F /  17.4 °C 30.01 in /  1016.1 hPa WSW 1.5 mph /  2.4 km/h 3.5 mph /  5.6 km/h 95 % 0.00 in /  0 mm
08:10 65.2 °F /  18.4 °C 63.7 °F /  17.6 °C 30.01 in /  1016.1 hPa WSW 1.1 mph /  1.8 km/h 2.3 mph /  3.7 km/h 95 % 0.00 in /  0 mm
08:15 65.6 °F /  18.7 °C 63.8 °F /  17.7 °C 30.01 in /  1016.1 hPa WSW 1.4 mph /  2.3 km/h 2.3 mph /  3.7 km/h 94 % 0.00 in /  0 mm
08:20 65.9 °F /  18.8 °C 64.1 °F /  17.8 °C 30.01 in /  1016.1 hPa SW 1.7 mph /  2.7 km/h 4.6 mph /  7.4 km/h 94 % 0.00 in /  0 mm
08:25 66.4 °F /  19.1 °C 64.0 °F /  17.8 °C 30.01 in /  1016.1 hPa SW 0.1 mph /  0.2 km/h 2.3 mph /  3.7 km/h 92 % 0.00 in /  0 mm
08:30 66.8 °F /  19.3 °C 64.1 °F /  17.8 °C 30.01 in /  1016.1 hPa WSW 0.3 mph /  0.5 km/h 3.5 mph /  5.6 km/h 91 % 0.00 in /  0 mm
08:35 67.1 °F /  19.5 °C 64.4 °F /  18 °C 30.00 in /  1015.8 hPa SSW 0.3 mph /  0.5 km/h 1.2 mph /  1.9 km/h 91 % 0.00 in /  0 mm
08:40 67.5 °F /  19.7 °C 64.1 °F /  17.8 °C 30.00 in /  1015.8 hPa SW 0.1 mph /  0.2 km/h 2.0 mph /  3.2 km/h 89 % 0.00 in /  0 mm
08:45 67.9 °F /  19.9 °C 64.2 °F /  17.9 °C 30.00 in /  1015.8 hPa WSW 2.4 mph /  3.9 km/h 3.0 mph /  4.8 km/h 88 % 0.00 in /  0 mm
08:50 68.3 °F /  20.2 °C 64.3 °F /  17.9 °C 30.00 in /  1015.8 hPa WSW 2.7 mph /  4.3 km/h 4.0 mph /  6.4 km/h 87 % 0.00 in /  0 mm
08:55 68.7 °F /  20.4 °C 64.3 °F /  17.9 °C 30.00 in /  1015.8 hPa WSW 0.3 mph /  0.5 km/h 3.5 mph /  5.6 km/h 86 % 0.00 in /  0 mm
09:00 69.0 °F /  20.6 °C 64.3 °F /  17.9 °C 30.00 in /  1015.8 hPa WSW 2.8 mph /  4.5 km/h 3.5 mph /  5.6 km/h 85 % 0.00 in /  0 mm
09:05 69.4 °F /  20.8 °C 64.7 °F /  18.2 °C 30.00 in /  1015.8 hPa WSW 1.6 mph /  2.6 km/h 3.5 mph /  5.6 km/h 85 % 0.00 in /  0 mm
09:10 69.7 °F /  20.9 °C 65.0 °F /  18.3 °C 30.00 in /  1015.8 hPa SW 0.5 mph /  0.8 km/h 2.0 mph /  3.2 km/h 85 % 0.00 in /  0 mm
09:15 70.0 °F /  21.1 °C 64.9 °F /  18.3 °C 30.00 in /  1015.8 hPa SW 2.0 mph /  3.2 km/h 3.5 mph /  5.6 km/h 84 % 0.00 in /  0 mm
09:20 70.3 °F /  21.3 °C 64.9 °F /  18.3 °C 30.00 in /  1015.8 hPa ENE 0.7 mph /  1.1 km/h 3.5 mph /  5.6 km/h 83 % 0.00 in /  0 mm
09:25 70.6 °F /  21.4 °C 64.8 °F /  18.2 °C 30.00 in /  1015.8 hPa SW 2.8 mph /  4.5 km/h 3.5 mph /  5.6 km/h 82 % 0.00 in /  0 mm
09:30 70.8 °F /  21.6 °C 64.7 °F /  18.2 °C 29.99 in /  1015.5 hPa WSW 2.7 mph /  4.3 km/h 5.8 mph /  9.3 km/h 81 % 0.00 in /  0 mm
09:35 71.1 °F /  21.7 °C 64.3 °F /  17.9 °C 29.99 in /  1015.5 hPa SW 0.2 mph /  0.3 km/h   79 % 0.00 in /  0 mm
09:40 71.3 °F /  21.8 °C 64.1 °F /  17.8 °C 29.99 in /  1015.5 hPa WSW 1.6 mph /  2.6 km/h 3.0 mph /  4.8 km/h 78 % 0.00 in /  0 mm
09:46 71.6 °F /  22 °C 64.7 °F /  18.2 °C 29.99 in /  1015.5 hPa WSW 1.0 mph /  1.6 km/h 6.0 mph /  9.7 km/h 79 % 0.00 in /  0 mm
09:51 71.8 °F /  22.1 °C 64.2 °F /  17.9 °C 29.99 in /  1015.5 hPa WSW 0.4 mph /  0.6 km/h 2.3 mph /  3.7 km/h 77 % 0.00 in /  0 mm
09:56 72.0 °F /  22.2 °C 64.4 °F /  18 °C 29.99 in /  1015.5 hPa WSW 1.0 mph /  1.6 km/h 4.0 mph /  6.4 km/h 77 % 0.00 in /  0 mm
10:01 72.2 °F /  22.3 °C 64.6 °F /  18.1 °C 29.99 in /  1015.5 hPa WSW 1.4 mph /  2.3 km/h 3.5 mph /  5.6 km/h 77 % 0.00 in /  0 mm
10:06 72.5 °F /  22.5 °C 64.1 °F /  17.8 °C 29.98 in /  1015.1 hPa West 0.4 mph /  0.6 km/h 2.3 mph /  3.7 km/h 75 % 0.00 in /  0 mm
10:11 72.9 °F /  22.7 °C 65.3 °F /  18.5 °C 29.98 in /  1015.1 hPa West 0.4 mph /  0.6 km/h 2.3 mph /  3.7 km/h 77 % 0.00 in /  0 mm
10:16 73.2 °F /  22.9 °C 64.8 °F /  18.2 °C 29.98 in /  1015.1 hPa SSW 0.6 mph /  1 km/h 3.0 mph /  4.8 km/h 75 % 0.00 in /  0 mm
10:21 73.6 °F /  23.1 °C 65.2 °F /  18.4 °C 29.98 in /  1015.1 hPa WNW 0.1 mph /  0.2 km/h 1.2 mph /  1.9 km/h 75 % 0.00 in /  0 mm
10:22 73.7 °F /  23.2 °C 65.3 °F /  18.5 °C 29.98 in /  1015.1 hPa WNW 0.1 mph /  0.2 km/h 1.2 mph /  1.9 km/h 75 % 0.00 in /  0 mm
10:27 74.1 °F /  23.4 °C 65.3 °F /  18.5 °C 29.98 in /  1015.1 hPa WNW 0.2 mph /  0.3 km/h 2.3 mph /  3.7 km/h 74 % 0.00 in /  0 mm
10:32 74.6 °F /  23.7 °C 66.5 °F /  19.2 °C 29.97 in /  1014.8 hPa West 0.2 mph /  0.3 km/h 2.3 mph /  3.7 km/h 76 % 0.00 in /  0 mm
10:37 75.4 °F /  24.1 °C 66.9 °F /  19.4 °C 29.97 in /  1014.8 hPa WSW 1.5 mph /  2.4 km/h 3.5 mph /  5.6 km/h 75 % 0.00 in /  0 mm
10:39 75.7 °F /  24.3 °C 66.8 °F /  19.3 °C 29.97 in /  1014.8 hPa WSW 0.1 mph /  0.2 km/h 1.2 mph /  1.9 km/h 74 % 0.00 in /  0 mm
10:44 76.2 °F /  24.6 °C 66.5 °F /  19.2 °C 29.97 in /  1014.8 hPa WSW 1.1 mph /  1.8 km/h 6.0 mph /  9.7 km/h 72 % 0.00 in /  0 mm
10:50 76.6 °F /  24.8 °C 66.5 °F /  19.2 °C 29.97 in /  1014.8 hPa SSW 1.8 mph /  2.9 km/h 3.5 mph /  5.6 km/h 71 % 0.00 in /  0 mm
10:55 76.9 °F /  24.9 °C 66.0 °F /  18.9 °C 29.97 in /  1014.8 hPa WSW 2.0 mph /  3.2 km/h 6.0 mph /  9.7 km/h 69 % 0.00 in /  0 mm
11:00 77.2 °F /  25.1 °C 66.7 °F /  19.3 °C 29.96 in /  1014.4 hPa WSW 0.1 mph /  0.2 km/h 5.8 mph /  9.3 km/h 70 % 0.00 in /  0 mm
11:05 77.4 °F /  25.2 °C 67.3 °F /  19.6 °C 29.96 in /  1014.4 hPa West 0.1 mph /  0.2 km/h 3.5 mph /  5.6 km/h 71 % 0.00 in /  0 mm
11:10 77.8 °F /  25.4 °C 68.0 °F /  20 °C 29.96 in /  1014.4 hPa Calm   2.3 mph /  3.7 km/h 72 % 0.00 in /  0 mm
11:15 78.1 °F /  25.6 °C 67.9 °F /  19.9 °C 29.96 in /  1014.4 hPa WNW 1.2 mph /  1.9 km/h 7.0 mph /  11.3 km/h 71 % 0.00 in /  0 mm
11:20 78.3 °F /  25.7 °C 67.3 °F /  19.6 °C 29.96 in /  1014.4 hPa WNW 2.0 mph /  3.2 km/h 3.5 mph /  5.6 km/h 69 % 0.00 in /  0 mm
11:25 78.5 °F /  25.8 °C 67.5 °F /  19.7 °C 29.95 in /  1014.1 hPa WNW 1.1 mph /  1.8 km/h 3.0 mph /  4.8 km/h 69 % 0.00 in /  0 mm
11:30 78.7 °F /  25.9 °C 67.7 °F /  19.8 °C 29.95 in /  1014.1 hPa WNW 0.7 mph /  1.1 km/h 2.3 mph /  3.7 km/h 69 % 0.00 in /  0 mm
11:35 78.8 °F /  26 °C 67.8 °F /  19.9 °C 29.95 in /  1014.1 hPa North 0.9 mph /  1.4 km/h 2.3 mph /  3.7 km/h 69 % 0.00 in /  0 mm
11:40 78.8 °F /  26 °C 67.8 °F /  19.9 °C 29.95 in /  1014.1 hPa SSW 1.3 mph /  2.1 km/h 2.3 mph /  3.7 km/h 69 % 0.00 in /  0 mm
11:45 78.8 °F /  26 °C 67.8 °F /  19.9 °C 29.95 in /  1014.1 hPa West 0.9 mph /  1.4 km/h 2.3 mph /  3.7 km/h 69 % 0.00 in /  0 mm
11:50 78.6 °F /  25.9 °C 68.0 °F /  20 °C 29.95 in /  1014.1 hPa ENE 1.2 mph /  1.9 km/h 5.8 mph /  9.3 km/h 70 % 0.00 in /  0 mm
11:55 77.9 °F /  25.5 °C 67.3 °F /  19.6 °C 29.95 in /  1014.1 hPa ENE 2.4 mph /  3.9 km/h 3.5 mph /  5.6 km/h 70 % 0.00 in /  0 mm
12:00 77.4 °F /  25.2 °C 67.7 °F /  19.8 °C 29.94 in /  1013.8 hPa NNE 3.3 mph /  5.3 km/h 5.0 mph /  8 km/h 72 % 0.00 in /  0 mm
12:06 77.2 °F /  25.1 °C 67.5 °F /  19.7 °C 29.94 in /  1013.8 hPa NNE 3.0 mph /  4.8 km/h 5.0 mph /  8 km/h 72 % 0.00 in /  0 mm
12:11 77.2 °F /  25.1 °C 68.7 °F /  20.4 °C 29.94 in /  1013.8 hPa Calm   4.0 mph /  6.4 km/h 75 % 0.00 in /  0 mm
12:16 77.5 °F /  25.3 °C 68.2 °F /  20.1 °C 29.94 in /  1013.8 hPa NE 1.0 mph /  1.6 km/h 5.0 mph /  8 km/h 73 % 0.00 in /  0 mm
12:21 78.1 °F /  25.6 °C 69.9 °F /  21.1 °C 29.94 in /  1013.8 hPa Calm     76 % 0.00 in /  0 mm
12:26 78.6 °F /  25.9 °C 69.2 °F /  20.7 °C 29.94 in /  1013.8 hPa NE 1.0 mph /  1.6 km/h 2.0 mph /  3.2 km/h 73 % 0.00 in /  0 mm
12:31 79.0 °F /  26.1 °C 69.2 °F /  20.7 °C 29.93 in /  1013.4 hPa NNE 1.0 mph /  1.6 km/h 5.0 mph /  8 km/h 72 % 0.00 in /  0 mm
12:36 79.1 °F /  26.2 °C 68.9 °F /  20.5 °C 29.93 in /  1013.4 hPa North 0.2 mph /  0.3 km/h 2.0 mph /  3.2 km/h 71 % 0.00 in /  0 mm
12:41 79.1 °F /  26.2 °C 68.9 °F /  20.5 °C 29.93 in /  1013.4 hPa Calm   4.0 mph /  6.4 km/h 71 % 0.00 in /  0 mm
12:46 79.1 °F /  26.2 °C 68.9 °F /  20.5 °C 29.93 in /  1013.4 hPa North 3.0 mph /  4.8 km/h 5.0 mph /  8 km/h 71 % 0.00 in /  0 mm
12:51 78.8 °F /  26 °C 68.2 °F /  20.1 °C 29.93 in /  1013.4 hPa NNE 3.0 mph /  4.8 km/h 6.0 mph /  9.7 km/h 70 % 0.00 in /  0 mm
12:56 78.4 °F /  25.8 °C 67.8 °F /  19.9 °C 29.93 in /  1013.4 hPa NNE 1.0 mph /  1.6 km/h 4.0 mph /  6.4 km/h 70 % 0.00 in /  0 mm
13:01 77.8 °F /  25.4 °C 67.6 °F /  19.8 °C 29.92 in /  1013.1 hPa NNE 2.4 mph /  3.9 km/h 3.5 mph /  5.6 km/h 71 % 0.00 in /  0 mm
13:06 77.3 °F /  25.2 °C 67.2 °F /  19.6 °C 29.92 in /  1013.1 hPa East 1.2 mph /  1.9 km/h 5.8 mph /  9.3 km/h 71 % 0.00 in /  0 mm
13:11 76.7 °F /  24.8 °C 67.0 °F /  19.4 °C 29.92 in /  1013.1 hPa ENE 1.4 mph /  2.3 km/h 3.5 mph /  5.6 km/h 72 % 0.00 in /  0 mm
13:16 76.4 °F /  24.7 °C 67.5 °F /  19.7 °C 29.92 in /  1013.1 hPa Calm   1.2 mph /  1.9 km/h 74 % 0.00 in /  0 mm
13:21 76.0 °F /  24.4 °C 66.7 °F /  19.3 °C 29.92 in /  1013.1 hPa ENE 1.2 mph /  1.9 km/h 1.2 mph /  1.9 km/h 73 % 0.00 in /  0 mm
13:26 76.1 °F /  24.5 °C 68.4 °F /  20.2 °C 29.92 in /  1013.1 hPa ENE 0.1 mph /  0.2 km/h 1.0 mph /  1.6 km/h 77 % 0.00 in /  0 mm
13:31 76.7 °F /  24.8 °C 69.3 °F /  20.7 °C 29.92 in /  1013.1 hPa Calm   2.3 mph /  3.7 km/h 78 % 0.00 in /  0 mm
13:36 76.9 °F /  24.9 °C 67.6 °F /  19.8 °C 29.91 in /  1012.8 hPa Calm   1.2 mph /  1.9 km/h 73 % 0.00 in /  0 mm
13:42 77.2 °F /  25.1 °C 68.7 °F /  20.4 °C 29.91 in /  1012.8 hPa Calm   2.3 mph /  3.7 km/h 75 % 0.00 in /  0 mm
13:47 77.4 °F /  25.2 °C 68.5 °F /  20.3 °C 29.91 in /  1012.8 hPa NE 1.9 mph /  3.1 km/h 4.6 mph /  7.4 km/h 74 % 0.00 in /  0 mm
13:52 77.6 °F /  25.3 °C 68.3 °F /  20.2 °C 29.91 in /  1012.8 hPa NE 0.8 mph /  1.3 km/h 2.3 mph /  3.7 km/h 73 % 0.00 in /  0 mm
13:57 77.9 °F /  25.5 °C 68.5 °F /  20.3 °C 29.90 in /  1012.4 hPa NE 0.8 mph /  1.3 km/h 3.5 mph /  5.6 km/h 73 % 0.00 in /  0 mm
14:02 78.1 °F /  25.6 °C 68.7 °F /  20.4 °C 29.90 in /  1012.4 hPa NE 1.6 mph /  2.6 km/h 3.5 mph /  5.6 km/h 73 % 0.00 in /  0 mm
14:07 78.4 °F /  25.8 °C 69.8 °F /  21 °C 29.89 in /  1012.1 hPa NE 1.1 mph /  1.8 km/h 3.5 mph /  5.6 km/h 75 % 0.00 in /  0 mm
14:12 78.5 °F /  25.8 °C 69.5 °F /  20.8 °C 29.89 in /  1012.1 hPa North 0.5 mph /  0.8 km/h 2.3 mph /  3.7 km/h 74 % 0.00 in /  0 mm
14:17 78.5 °F /  25.8 °C 68.7 °F /  20.4 °C 29.89 in /  1012.1 hPa North 0.9 mph /  1.4 km/h 2.3 mph /  3.7 km/h 72 % 0.00 in /  0 mm
14:22 78.2 °F /  25.7 °C 68.4 °F /  20.2 °C 29.89 in /  1012.1 hPa NE 0.8 mph /  1.3 km/h 3.5 mph /  5.6 km/h 72 % 0.00 in /  0 mm
14:27 77.9 °F /  25.5 °C 68.1 °F /  20.1 °C 29.89 in /  1012.1 hPa North 1.5 mph /  2.4 km/h 3.5 mph /  5.6 km/h 72 % 0.00 in /  0 mm
14:32 77.6 °F /  25.3 °C 68.3 °F /  20.2 °C 29.89 in /  1012.1 hPa Calm   1.2 mph /  1.9 km/h 73 % 0.00 in /  0 mm
14:37 77.2 °F /  25.1 °C 67.9 °F /  19.9 °C 29.89 in /  1012.1 hPa Calm   1.2 mph /  1.9 km/h 73 % 0.00 in /  0 mm
14:42 76.9 °F /  24.9 °C 68.8 °F /  20.4 °C 29.89 in /  1012.1 hPa Calm   1.2 mph /  1.9 km/h 76 % 0.00 in /  0 mm
14:48 76.8 °F /  24.9 °C 69.0 °F /  20.6 °C 29.89 in /  1012.1 hPa Calm   1.2 mph /  1.9 km/h 77 % 0.00 in /  0 mm
14:53 76.6 °F /  24.8 °C 69.6 °F /  20.9 °C 29.89 in /  1012.1 hPa SW 1.0 mph /  1.6 km/h 4.0 mph /  6.4 km/h 79 % 0.00 in /  0 mm
14:58 76.5 °F /  24.7 °C 69.5 °F /  20.8 °C 29.89 in /  1012.1 hPa West 0.2 mph /  0.3 km/h 1.2 mph /  1.9 km/h 79 % 0.00 in /  0 mm
15:03 76.4 °F /  24.7 °C 69.4 °F /  20.8 °C 29.89 in /  1012.1 hPa Calm     79 % 0.00 in /  0 mm
15:08 76.3 °F /  24.6 °C 69.7 °F /  20.9 °C 29.88 in /  1011.7 hPa WNW 0.5 mph /  0.8 km/h 1.2 mph /  1.9 km/h 80 % 0.00 in /  0 mm
15:13 76.2 °F /  24.6 °C 69.6 °F /  20.9 °C 29.88 in /  1011.7 hPa Calm   1.2 mph /  1.9 km/h 80 % 0.00 in /  0 mm
15:18 76.1 °F /  24.5 °C 69.5 °F /  20.8 °C 29.89 in /  1012.1 hPa SW 0.4 mph /  0.6 km/h 2.3 mph /  3.7 km/h 80 % 0.00 in /  0 mm
15:23 76.1 °F /  24.5 °C 69.5 °F /  20.8 °C 29.89 in /  1012.1 hPa SW 0.4 mph /  0.6 km/h 1.2 mph /  1.9 km/h 80 % 0.00 in /  0 mm
15:29 76.0 °F /  24.4 °C 69.4 °F /  20.8 °C 29.89 in /  1012.1 hPa SSW 0.6 mph /  1 km/h 1.2 mph /  1.9 km/h 80 % 0.00 in /  0 mm
15:34 76.0 °F /  24.4 °C 69.4 °F /  20.8 °C 29.88 in /  1011.7 hPa Calm   1.2 mph /  1.9 km/h 80 % 0.00 in /  0 mm
15:39 75.8 °F /  24.3 °C 68.8 °F /  20.4 °C 29.89 in /  1012.1 hPa SE 0.7 mph /  1.1 km/h 3.5 mph /  5.6 km/h 79 % 0.00 in /  0 mm
15:44 75.7 °F /  24.3 °C 68.7 °F /  20.4 °C 29.89 in /  1012.1 hPa South 0.3 mph /  0.5 km/h 1.2 mph /  1.9 km/h 79 % 0.00 in /  0 mm
15:49 75.5 °F /  24.2 °C 68.9 °F /  20.5 °C 29.89 in /  1012.1 hPa SE 0.8 mph /  1.3 km/h 3.5 mph /  5.6 km/h 80 % 0.00 in /  0 mm
15:54 75.2 °F /  24 °C 68.2 °F /  20.1 °C 29.89 in /  1012.1 hPa Calm   1.2 mph /  1.9 km/h 79 % 0.00 in /  0 mm
15:59 74.9 °F /  23.8 °C 68.3 °F /  20.2 °C 29.89 in /  1012.1 hPa SE 1.3 mph /  2.1 km/h 4.6 mph /  7.4 km/h 80 % 0.00 in /  0 mm
16:04 74.8 °F /  23.8 °C 68.6 °F /  20.3 °C 29.88 in /  1011.7 hPa SE 0.3 mph /  0.5 km/h 3.5 mph /  5.6 km/h 81 % 0.00 in /  0 mm
16:09 74.8 °F /  23.8 °C 68.6 °F /  20.3 °C 29.88 in /  1011.7 hPa SSE 0.5 mph /  0.8 km/h 2.3 mph /  3.7 km/h 81 % 0.00 in /  0 mm
16:14 74.8 °F /  23.8 °C 68.9 °F /  20.5 °C 29.88 in /  1011.7 hPa SSW 2.1 mph /  3.4 km/h 5.8 mph /  9.3 km/h 82 % 0.00 in /  0 mm
16:19 74.8 °F /  23.8 °C 68.6 °F /  20.3 °C 29.88 in /  1011.7 hPa South 0.1 mph /  0.2 km/h 1.2 mph /  1.9 km/h 81 % 0.00 in /  0 mm
16:24 74.7 °F /  23.7 °C 68.5 °F /  20.3 °C 29.88 in /  1011.7 hPa South 1.3 mph /  2.1 km/h 3.5 mph /  5.6 km/h 81 % 0.00 in /  0 mm
16:25 74.7 °F /  23.7 °C 68.5 °F /  20.3 °C 29.88 in /  1011.7 hPa SSW 1.4 mph /  2.3 km/h 3.5 mph /  5.6 km/h 81 % 0.00 in /  0 mm
16:30 74.7 °F /  23.7 °C 68.8 °F /  20.4 °C 29.88 in /  1011.7 hPa WSW 1.6 mph /  2.6 km/h 3.5 mph /  5.6 km/h 82 % 0.00 in /  0 mm
16:35 74.6 °F /  23.7 °C 68.7 °F /  20.4 °C 29.88 in /  1011.7 hPa Calm   1.2 mph /  1.9 km/h 82 % 0.00 in /  0 mm
16:40 74.6 °F /  23.7 °C 69.1 °F /  20.6 °C 29.88 in /  1011.7 hPa Calm     83 % 0.00 in /  0 mm
16:45 74.6 °F /  23.7 °C 69.4 °F /  20.8 °C 29.88 in /  1011.7 hPa Calm   1.2 mph /  1.9 km/h 84 % 0.00 in /  0 mm
16:50 74.6 °F /  23.7 °C 69.8 °F /  21 °C 29.87 in /  1011.4 hPa SSW 0.3 mph /  0.5 km/h 1.2 mph /  1.9 km/h 85 % 0.00 in /  0 mm
16:55 74.4 °F /  23.6 °C 69.6 °F /  20.9 °C 29.87 in /  1011.4 hPa SSW 0.4 mph /  0.6 km/h 1.2 mph /  1.9 km/h 85 % 0.00 in /  0 mm
17:00 74.4 °F /  23.6 °C 69.6 °F /  20.9 °C 29.87 in /  1011.4 hPa SSW 0.3 mph /  0.5 km/h 2.3 mph /  3.7 km/h 85 % 0.00 in /  0 mm
17:05 74.4 °F /  23.6 °C 69.6 °F /  20.9 °C 29.87 in /  1011.4 hPa Calm     85 % 0.00 in /  0 mm
17:10 74.4 °F /  23.6 °C 69.6 °F /  20.9 °C 29.87 in /  1011.4 hPa South 0.1 mph /  0.2 km/h 1.2 mph /  1.9 km/h 85 % 0.00 in /  0 mm
17:15 74.4 °F /  23.6 °C 69.6 °F /  20.9 °C 29.87 in /  1011.4 hPa Calm   1.0 mph /  1.6 km/h 85 % 0.00 in /  0 mm
17:20 74.4 °F /  23.6 °C 69.6 °F /  20.9 °C 29.87 in /  1011.4 hPa Calm     85 % 0.00 in /  0 mm
17:25 74.4 °F /  23.6 °C 69.6 °F /  20.9 °C 29.86 in /  1011.1 hPa Calm   1.2 mph /  1.9 km/h 85 % 0.00 in /  0 mm
17:26 74.4 °F /  23.6 °C 69.6 °F /  20.9 °C 29.86 in /  1011.1 hPa SE 0.3 mph /  0.5 km/h 2.3 mph /  3.7 km/h 85 % 0.00 in /  0 mm
17:31 74.4 °F /  23.6 °C 69.6 °F /  20.9 °C 29.86 in /  1011.1 hPa SW 0.6 mph /  1 km/h 3.5 mph /  5.6 km/h 85 % 0.00 in /  0 mm
17:36 74.4 °F /  23.6 °C 69.6 °F /  20.9 °C 29.86 in /  1011.1 hPa SE 0.6 mph /  1 km/h 2.3 mph /  3.7 km/h 85 % 0.00 in /  0 mm
17:41 74.4 °F /  23.6 °C 69.6 °F /  20.9 °C 29.86 in /  1011.1 hPa SE 2.2 mph /  3.5 km/h 4.6 mph /  7.4 km/h 85 % 0.00 in /  0 mm
17:46 74.4 °F /  23.6 °C 69.6 °F /  20.9 °C 29.86 in /  1011.1 hPa SE 0.1 mph /  0.2 km/h 1.2 mph /  1.9 km/h 85 % 0.00 in /  0 mm
17:51 74.4 °F /  23.6 °C 69.6 °F /  20.9 °C 29.86 in /  1011.1 hPa SW 1.6 mph /  2.6 km/h 3.5 mph /  5.6 km/h 85 % 0.00 in /  0 mm
17:56 74.4 °F /  23.6 °C 69.6 °F /  20.9 °C 29.86 in /  1011.1 hPa Calm     85 % 0.00 in /  0 mm
18:01 74.4 °F /  23.6 °C 69.6 °F /  20.9 °C 29.86 in /  1011.1 hPa SSW 0.8 mph /  1.3 km/h 3.5 mph /  5.6 km/h 85 % 0.00 in /  0 mm
18:06 74.4 °F /  23.6 °C 69.6 °F /  20.9 °C 29.86 in /  1011.1 hPa South 0.4 mph /  0.6 km/h 1.2 mph /  1.9 km/h 85 % 0.00 in /  0 mm
18:11 74.4 °F /  23.6 °C 69.6 °F /  20.9 °C 29.86 in /  1011.1 hPa SE 0.5 mph /  0.8 km/h 3.5 mph /  5.6 km/h 85 % 0.00 in /  0 mm
18:16 74.3 °F /  23.5 °C 69.5 °F /  20.8 °C 29.86 in /  1011.1 hPa WSW 0.8 mph /  1.3 km/h 3.5 mph /  5.6 km/h 85 % 0.00 in /  0 mm
18:21 74.4 °F /  23.6 °C 69.6 °F /  20.9 °C 29.85 in /  1010.7 hPa Calm   1.2 mph /  1.9 km/h 85 % 0.00 in /  0 mm
18:26 74.3 °F /  23.5 °C 69.5 °F /  20.8 °C 29.85 in /  1010.7 hPa SW 0.1 mph /  0.2 km/h 1.2 mph /  1.9 km/h 85 % 0.00 in /  0 mm
18:31 74.4 °F /  23.6 °C 69.6 °F /  20.9 °C 29.85 in /  1010.7 hPa South 0.3 mph /  0.5 km/h 2.3 mph /  3.7 km/h 85 % 0.00 in /  0 mm
18:36 74.3 °F /  23.5 °C 69.5 °F /  20.8 °C 29.85 in /  1010.7 hPa SSE 1.3 mph /  2.1 km/h 6.9 mph /  11.1 km/h 85 % 0.00 in /  0 mm
18:42 74.2 °F /  23.4 °C 69.4 °F /  20.8 °C 29.85 in /  1010.7 hPa SSE 0.5 mph /  0.8 km/h 3.5 mph /  5.6 km/h 85 % 0.00 in /  0 mm
18:47 74.2 °F /  23.4 °C 69.4 °F /  20.8 °C 29.85 in /  1010.7 hPa SSE 1.0 mph /  1.6 km/h 3.5 mph /  5.6 km/h 85 % 0.00 in /  0 mm
18:52 74.2 °F /  23.4 °C 69.7 °F /  20.9 °C 29.85 in /  1010.7 hPa Calm   1.2 mph /  1.9 km/h 86 % 0.00 in /  0 mm
18:57 74.1 °F /  23.4 °C 69.6 °F /  20.9 °C 29.85 in /  1010.7 hPa South 0.7 mph /  1.1 km/h 2.3 mph /  3.7 km/h 86 % 0.00 in /  0 mm
19:02 74.1 °F /  23.4 °C 69.6 °F /  20.9 °C 29.85 in /  1010.7 hPa SE 0.6 mph /  1 km/h 6.0 mph /  9.7 km/h 86 % 0.00 in /  0 mm
19:07 74.2 °F /  23.4 °C 69.7 °F /  20.9 °C 29.85 in /  1010.7 hPa SE 0.4 mph /  0.6 km/h 3.5 mph /  5.6 km/h 86 % 0.00 in /  0 mm
19:12 74.2 °F /  23.4 °C 70.1 °F /  21.2 °C 29.85 in /  1010.7 hPa SSW 0.3 mph /  0.5 km/h 2.3 mph /  3.7 km/h 87 % 0.00 in /  0 mm
19:17 74.2 °F /  23.4 °C 70.1 °F /  21.2 °C 29.85 in /  1010.7 hPa SSW 0.5 mph /  0.8 km/h 2.3 mph /  3.7 km/h 87 % 0.00 in /  0 mm
19:22 74.2 °F /  23.4 °C 70.1 °F /  21.2 °C 29.85 in /  1010.7 hPa SSE 0.6 mph /  1 km/h 2.3 mph /  3.7 km/h 87 % 0.00 in /  0 mm
19:27 74.2 °F /  23.4 °C 70.1 °F /  21.2 °C 29.85 in /  1010.7 hPa SSE 0.2 mph /  0.3 km/h 1.2 mph /  1.9 km/h 87 % 0.00 in /  0 mm
19:32 74.2 °F /  23.4 °C 70.1 °F /  21.2 °C 29.85 in /  1010.7 hPa SE 0.5 mph /  0.8 km/h 2.3 mph /  3.7 km/h 87 % 0.00 in /  0 mm
19:37 74.2 °F /  23.4 °C 70.1 °F /  21.2 °C 29.85 in /  1010.7 hPa Calm   3.5 mph /  5.6 km/h 87 % 0.00 in /  0 mm
19:42 74.1 °F /  23.4 °C 70.0 °F /  21.1 °C 29.85 in /  1010.7 hPa SE 1.0 mph /  1.6 km/h 1.2 mph /  1.9 km/h 87 % 0.00 in /  0 mm
19:47 74.0 °F /  23.3 °C 69.9 °F /  21.1 °C 29.84 in /  1010.4 hPa WSW 0.9 mph /  1.4 km/h 1.2 mph /  1.9 km/h 87 % 0.00 in /  0 mm
19:52 74.0 °F /  23.3 °C 70.2 °F /  21.2 °C 29.84 in /  1010.4 hPa WSW 0.5 mph /  0.8 km/h 1.2 mph /  1.9 km/h 88 % 0.00 in /  0 mm
19:57 73.9 °F /  23.3 °C 69.8 °F /  21 °C 29.84 in /  1010.4 hPa WSW 0.1 mph /  0.2 km/h 2.3 mph /  3.7 km/h 87 % 0.00 in /  0 mm
20:00 73.9 °F /  23.3 °C 69.8 °F /  21 °C 29.84 in /  1010.4 hPa WSW 1.3 mph /  2.1 km/h 2.3 mph /  3.7 km/h 87 % 0.00 in /  0 mm
20:05 73.8 °F /  23.2 °C 70.0 °F /  21.1 °C 29.84 in /  1010.4 hPa SE 0.6 mph /  1 km/h 1.2 mph /  1.9 km/h 88 % 0.00 in /  0 mm
20:10 73.7 °F /  23.2 °C 69.9 °F /  21.1 °C 29.84 in /  1010.4 hPa SE 0.1 mph /  0.2 km/h 1.2 mph /  1.9 km/h 88 % 0.00 in /  0 mm
20:15 73.6 °F /  23.1 °C 69.8 °F /  21 °C 29.83 in /  1010 hPa SE 1.1 mph /  1.8 km/h 3.5 mph /  5.6 km/h 88 % 0.00 in /  0 mm
20:20 73.5 °F /  23.1 °C 70.1 °F /  21.2 °C 29.84 in /  1010.4 hPa South 0.5 mph /  0.8 km/h 2.3 mph /  3.7 km/h 89 % 0.00 in /  0 mm
20:25 73.4 °F /  23 °C 70.0 °F /  21.1 °C 29.83 in /  1010 hPa South 0.4 mph /  0.6 km/h 2.0 mph /  3.2 km/h 89 % 0.00 in /  0 mm
20:30 73.4 °F /  23 °C 70.0 °F /  21.1 °C 29.83 in /  1010 hPa South 0.3 mph /  0.5 km/h 2.0 mph /  3.2 km/h 89 % 0.00 in /  0 mm
20:35 73.3 °F /  22.9 °C 69.9 °F /  21.1 °C 29.84 in /  1010.4 hPa SW 1.9 mph /  3.1 km/h 4.6 mph /  7.4 km/h 89 % 0.00 in /  0 mm
20:40 73.3 °F /  22.9 °C 69.9 °F /  21.1 °C 29.83 in /  1010 hPa SW 0.9 mph /  1.4 km/h 2.3 mph /  3.7 km/h 89 % 0.00 in /  0 mm
20:45 73.2 °F /  22.9 °C 69.8 °F /  21 °C 29.83 in /  1010 hPa SSW 0.2 mph /  0.3 km/h 1.2 mph /  1.9 km/h 89 % 0.00 in /  0 mm
20:50 73.1 °F /  22.8 °C 69.7 °F /  20.9 °C 29.83 in /  1010 hPa SSW 1.0 mph /  1.6 km/h 3.5 mph /  5.6 km/h 89 % 0.00 in /  0 mm
20:55 73.1 °F /  22.8 °C 70.0 °F /  21.1 °C 29.83 in /  1010 hPa SSW 0.5 mph /  0.8 km/h 2.0 mph /  3.2 km/h 90 % 0.00 in /  0 mm
21:00 73.0 °F /  22.8 °C 69.9 °F /  21.1 °C 29.84 in /  1010.4 hPa SSW 0.6 mph /  1 km/h 2.3 mph /  3.7 km/h 90 % 0.00 in /  0 mm
21:05 73.0 °F /  22.8 °C 69.9 °F /  21.1 °C 29.83 in /  1010 hPa SE 0.6 mph /  1 km/h 2.3 mph /  3.7 km/h 90 % 0.00 in /  0 mm
21:10 73.0 °F /  22.8 °C 69.9 °F /  21.1 °C 29.84 in /  1010.4 hPa SSE 0.2 mph /  0.3 km/h 1.2 mph /  1.9 km/h 90 % 0.00 in /  0 mm
21:15 72.9 °F /  22.7 °C 70.1 °F /  21.2 °C 29.84 in /  1010.4 hPa SSE 0.2 mph /  0.3 km/h 1.2 mph /  1.9 km/h 91 % 0.00 in /  0 mm
21:20 72.9 °F /  22.7 °C 70.1 °F /  21.2 °C 29.84 in /  1010.4 hPa Calm   1.2 mph /  1.9 km/h 91 % 0.00 in /  0 mm
21:25 72.9 °F /  22.7 °C 70.1 °F /  21.2 °C 29.84 in /  1010.4 hPa SSE 0.6 mph /  1 km/h 1.2 mph /  1.9 km/h 91 % 0.00 in /  0 mm
21:30 72.8 °F /  22.7 °C 70.0 °F /  21.1 °C 29.84 in /  1010.4 hPa WSW 0.3 mph /  0.5 km/h 2.3 mph /  3.7 km/h 91 % 0.00 in /  0 mm
21:35 72.8 °F /  22.7 °C 70.0 °F /  21.1 °C 29.84 in /  1010.4 hPa SE 0.3 mph /  0.5 km/h 2.3 mph /  3.7 km/h 91 % 0.00 in /  0 mm
21:41 72.8 °F /  22.7 °C 70.0 °F /  21.1 °C 29.84 in /  1010.4 hPa Calm   5.0 mph /  8 km/h 91 % 0.00 in /  0 mm
21:46 72.7 °F /  22.6 °C 69.9 °F /  21.1 °C 29.84 in /  1010.4 hPa South 1.0 mph /  1.6 km/h 2.3 mph /  3.7 km/h 91 % 0.00 in /  0 mm
21:51 72.7 °F /  22.6 °C 69.9 °F /  21.1 °C 29.84 in /  1010.4 hPa SSW 1.0 mph /  1.6 km/h 4.0 mph /  6.4 km/h 91 % 0.00 in /  0 mm
21:56 72.7 °F /  22.6 °C 69.9 °F /  21.1 °C 29.84 in /  1010.4 hPa SW 1.0 mph /  1.6 km/h 3.0 mph /  4.8 km/h 91 % 0.00 in /  0 mm
22:01 72.7 °F /  22.6 °C 69.9 °F /  21.1 °C 29.84 in /  1010.4 hPa WSW 0.6 mph /  1 km/h 1.2 mph /  1.9 km/h 91 % 0.00 in /  0 mm
22:06 72.7 °F /  22.6 °C 69.9 °F /  21.1 °C 29.83 in /  1010 hPa Calm     91 % 0.00 in /  0 mm
22:11 72.7 °F /  22.6 °C 69.9 °F /  21.1 °C 29.83 in /  1010 hPa Calm     91 % 0.00 in /  0 mm
22:16 72.7 °F /  22.6 °C 69.9 °F /  21.1 °C 29.83 in /  1010 hPa SSE 0.7 mph /  1.1 km/h 2.3 mph /  3.7 km/h 91 % 0.00 in /  0 mm
22:21 72.7 °F /  22.6 °C 70.2 °F /  21.2 °C 29.83 in /  1010 hPa Calm     92 % 0.00 in /  0 mm
22:26 72.7 °F /  22.6 °C 70.2 °F /  21.2 °C 29.83 in /  1010 hPa WNW 0.1 mph /  0.2 km/h 1.2 mph /  1.9 km/h 92 % 0.00 in /  0 mm
22:31 72.7 °F /  22.6 °C 70.2 °F /  21.2 °C 29.83 in /  1010 hPa West 0.9 mph /  1.4 km/h 3.5 mph /  5.6 km/h 92 % 0.00 in /  0 mm
22:36 72.7 °F /  22.6 °C 70.2 °F /  21.2 °C 29.83 in /  1010 hPa SE 0.7 mph /  1.1 km/h 2.3 mph /  3.7 km/h 92 % 0.00 in /  0 mm
22:41 72.7 °F /  22.6 °C 69.9 °F /  21.1 °C 29.82 in /  1009.7 hPa South 0.5 mph /  0.8 km/h 3.5 mph /  5.6 km/h 91 % 0.00 in /  0 mm
22:46 72.7 °F /  22.6 °C 69.9 °F /  21.1 °C 29.83 in /  1010 hPa SSW 2.1 mph /  3.4 km/h 5.8 mph /  9.3 km/h 91 % 0.00 in /  0 mm
22:51 72.7 °F /  22.6 °C 70.2 °F /  21.2 °C 29.82 in /  1009.7 hPa WSW 1.4 mph /  2.3 km/h 6.9 mph /  11.1 km/h 92 % 0.00 in /  0 mm
22:56 72.7 °F /  22.6 °C 70.2 °F /  21.2 °C 29.82 in /  1009.7 hPa Calm   2.3 mph /  3.7 km/h 92 % 0.00 in /  0 mm
23:01 72.7 °F /  22.6 °C 70.2 °F /  21.2 °C 29.83 in /  1010 hPa SW 1.0 mph /  1.6 km/h 4.0 mph /  6.4 km/h 92 % 0.00 in /  0 mm
23:06 72.6 °F /  22.6 °C 70.1 °F /  21.2 °C 29.82 in /  1009.7 hPa SSW 1.6 mph /  2.6 km/h 3.5 mph /  5.6 km/h 92 % 0.00 in /  0 mm
23:11 72.6 °F /  22.6 °C 70.1 °F /  21.2 °C 29.82 in /  1009.7 hPa WSW 2.3 mph /  3.7 km/h 3.5 mph /  5.6 km/h 92 % 0.00 in /  0 mm
23:16 72.6 °F /  22.6 °C 70.1 °F /  21.2 °C 29.82 in /  1009.7 hPa SW 1.0 mph /  1.6 km/h 2.3 mph /  3.7 km/h 92 % 0.00 in /  0 mm
23:21 72.6 °F /  22.6 °C 70.1 °F /  21.2 °C 29.82 in /  1009.7 hPa SSW 1.6 mph /  2.6 km/h 3.5 mph /  5.6 km/h 92 % 0.00 in /  0 mm
23:26 72.6 °F /  22.6 °C 70.1 °F /  21.2 °C 29.82 in /  1009.7 hPa SSW 0.8 mph /  1.3 km/h 3.5 mph /  5.6 km/h 92 % 0.00 in /  0 mm
23:31 72.6 °F /  22.6 °C 70.1 °F /  21.2 °C 29.82 in /  1009.7 hPa SSW 1.6 mph /  2.6 km/h 2.3 mph /  3.7 km/h 92 % 0.00 in /  0 mm
23:36 72.6 °F /  22.6 °C 70.1 °F /  21.2 °C 29.82 in /  1009.7 hPa SW 0.8 mph /  1.3 km/h 4.0 mph /  6.4 km/h 92 % 0.00 in /  0 mm
23:41 72.6 °F /  22.6 °C 70.1 °F /  21.2 °C 29.82 in /  1009.7 hPa SW 0.4 mph /  0.6 km/h 3.5 mph /  5.6 km/h 92 % 0.00 in /  0 mm
23:46 72.6 °F /  22.6 °C 70.1 °F /  21.2 °C 29.82 in /  1009.7 hPa WSW 2.0 mph /  3.2 km/h 3.5 mph /  5.6 km/h 92 % 0.00 in /  0 mm
23:52 72.6 °F /  22.6 °C 70.1 °F /  21.2 °C 29.82 in /  1009.7 hPa SW 0.2 mph /  0.3 km/h 3.5 mph /  5.6 km/h 92 % 0.00 in /  0 mm
23:56 72.6 °F /  22.6 °C 70.1 °F /  21.2 °C 29.82 in /  1009.7 hPa SSW 0.2 mph /  0.3 km/h 1.2 mph /  1.9 km/h 92 % 0.00 in /  0 mm
Crab Meadow Weather
Compliments of Weather Underground - 3 mb

Script developed by  Jim McMurry - jmcmurry@mwt.net Adapted for the template by  Wim van der Kuil - Leuven-Template.eu

Weather Terms: Flash Flood Warning - Flash flooding is occurring, imminent or highly likely. A flash flood is a flood that occurs within 6 hours of excessive rainfall and that poses a threat to life and/or property. Ice jams and dam failures can also cause flash floods. These warnings are issued on a county by county basis by the local Weather Forecast Office in Upton and are generally in effect for up to 6 hours.